Time;durP1;ratioP1;P1;durP2;ratioP2;P2;SDS_P1;SDS_P2;PMS_P1;PMS_P2;Temp;Humidity;BMP_temperature;BMP_pressure;BME280_temperature;BME280_humidity;BME280_pressure;Samples;Min_cycle;Max_cycle;Signal;HPM_P1;HPM_P2
2022/09/16 00:00:47;;;;;;;7.75;2.65;;;;;;;17.29;60.38;100789.00;4998286;28;20057;-64
2022/09/16 00:03:15;;;;;;;5.68;2.47;;;;;;;16.96;62.83;100791.25;4997293;28;20046;-64
2022/09/16 00:05:48;;;;;;;7.18;3.10;;;;;;;16.93;62.62;100805.06;4996575;28;20065;-65
2022/09/16 00:08:17;;;;;;;8.02;3.10;;;;;;;16.73;63.14;100812.41;4998358;28;20624;-64
2022/09/16 00:10:44;;;;;;;4.97;2.70;;;;;;;16.65;64.04;100805.00;4998317;28;20054;-64
2022/09/16 00:13:12;;;;;;;8.13;3.13;;;;;;;16.64;64.10;100811.75;4983181;28;20051;-64
2022/09/16 00:15:44;;;;;;;5.70;2.72;;;;;;;17.00;64.56;100806.06;4990159;28;20073;-64
2022/09/16 00:18:11;;;;;;;7.70;3.03;;;;;;;17.54;63.64;100812.75;4997384;28;20046;-63
2022/09/16 00:20:47;;;;;;;9.40;3.08;;;;;;;17.04;62.95;100817.28;4996327;28;20050;-63
2022/09/16 00:23:14;;;;;;;6.55;2.65;;;;;;;17.20;62.37;100815.38;4997744;28;20054;-63
2022/09/16 00:25:42;;;;;;;6.68;3.00;;;;;;;17.52;64.02;100826.22;4995805;28;20498;-64
2022/09/16 00:28:09;;;;;;;4.82;2.45;;;;;;;16.98;63.55;100825.06;4998254;28;20054;-63
2022/09/16 00:30:36;;;;;;;6.45;2.92;;;;;;;17.25;62.92;100834.59;4998197;28;20058;-63
2022/09/16 00:33:04;;;;;;;5.80;2.90;;;;;;;16.57;65.17;100831.00;4997790;28;20050;-63
2022/09/16 00:35:31;;;;;;;9.07;2.70;;;;;;;17.04;64.69;100820.88;4998213;28;20054;-64
2022/09/16 00:37:58;;;;;;;4.47;2.40;;;;;;;17.11;65.62;100823.06;4998402;28;20050;-63
2022/09/16 00:40:25;;;;;;;10.40;3.08;;;;;;;16.94;64.54;100824.19;5002872;28;20520;-63
2022/09/16 00:42:53;;;;;;;7.85;3.08;;;;;;;17.30;66.09;100823.19;4996634;28;20046;-63
2022/09/16 00:45:22;;;;;;;6.20;3.00;;;;;;;16.79;64.91;100827.69;4997674;28;20046;-64
2022/09/16 00:47:52;;;;;;;8.40;3.20;;;;;;;16.84;65.41;100827.47;4998047;28;20046;-63
2022/09/16 00:50:23;;;;;;;8.90;3.00;;;;;;;17.27;63.42;100827.53;4997852;28;20473;-63
2022/09/16 00:52:52;;;;;;;5.93;2.58;;;;;;;16.97;66.54;100825.44;4998206;28;20073;-63
2022/09/16 00:55:26;;;;;;;5.45;2.70;;;;;;;17.19;64.57;100831.25;4977531;28;20055;-63
2022/09/16 00:57:56;;;;;;;9.38;3.53;;;;;;;16.74;65.79;100823.19;4997155;28;20046;-63
2022/09/16 01:00:25;;;;;;;9.57;3.38;;;;;;;17.36;65.94;100819.00;4997627;28;20050;-63
2022/09/16 01:02:52;;;;;;;9.38;2.90;;;;;;;17.82;65.12;100812.69;4997993;28;20046;-63
2022/09/16 01:05:21;;;;;;;8.18;3.65;;;;;;;17.61;63.99;100823.28;4994653;28;20053;-63
2022/09/16 01:07:50;;;;;;;9.18;3.85;;;;;;;17.81;65.28;100811.09;4996821;28;20073;-64
2022/09/16 01:10:20;;;;;;;7.47;3.42;;;;;;;17.76;63.52;100814.97;4997411;28;20545;-64
2022/09/16 01:12:54;;;;;;;8.60;3.53;;;;;;;17.89;64.08;100812.88;4997732;28;20069;-64
2022/09/16 01:15:25;;;;;;;7.18;3.70;;;;;;;17.38;64.07;100811.09;4996688;28;20047;-64
2022/09/16 01:18:24;;;;;;;9.77;3.45;;;;;;;17.37;64.30;100813.06;4996475;28;20054;-64
2022/09/16 01:20:57;;;;;;;7.57;3.85;;;;;;;16.87;65.99;100821.19;4967088;28;20066;-63
2022/09/16 01:24:02;;;;;;;7.88;3.83;;;;;;;16.68;67.02;100830.16;4996039;28;20057;-63
2022/09/16 01:26:36;;;;;;;9.98;3.53;;;;;;;16.54;69.11;100820.59;4995344;28;20074;-63
2022/09/16 01:29:21;;;;;;;8.00;3.25;;;;;;;17.74;66.74;100819.25;4995802;28;20080;-63
2022/09/16 01:31:52;;;;;;;7.50;4.03;;;;;;;17.27;65.40;100818.34;5012535;28;20069;-63
2022/09/16 01:34:33;;;;;;;;;;;;;;;17.68;66.90;100815.09;4984838;28;20046;-63
2022/09/16 01:37:38;;;;;;;8.45;2.97;;;;;;;18.08;63.64;100818.53;4986425;28;19925;-63
2022/09/16 01:40:31;;;;;;;8.77;3.88;;;;;;;17.26;65.50;100814.75;4978023;28;20051;-63
2022/09/16 01:43:10;;;;;;;8.30;3.72;;;;;;;17.45;65.85;100816.88;4996062;28;20537;-63
2022/09/16 01:45:42;;;;;;;8.52;3.83;;;;;;;17.63;66.06;100815.38;5010881;28;20046;-63
2022/09/16 01:48:30;;;;;;;10.30;4.00;;;;;;;16.84;66.74;100817.13;4995551;28;20059;-63
2022/09/16 01:51:04;;;;;;;11.95;4.28;;;;;;;16.65;68.66;100822.50;4987513;28;20054;-63
2022/09/16 01:53:38;;;;;;;11.48;3.65;;;;;;;16.56;68.88;100821.84;4996947;28;20073;-63
2022/09/16 01:56:11;;;;;;;9.80;3.95;;;;;;;17.17;69.12;100818.88;4978200;28;20049;-63
2022/09/16 01:58:46;;;;;;;9.73;3.55;;;;;;;17.06;66.88;100813.00;4996655;28;20486;-63
2022/09/16 02:01:22;;;;;;;10.25;3.90;;;;;;;17.37;67.51;100812.25;4984517;28;20061;-63
2022/09/16 02:03:54;;;;;;;7.93;3.50;;;;;;;17.46;66.67;100818.47;4979398;28;20065;-63
2022/09/16 02:06:22;;;;;;;8.93;3.80;;;;;;;17.12;67.59;100816.34;4978622;28;20087;-62
2022/09/16 02:08:53;;;;;;;7.82;4.20;;;;;;;16.67;68.38;100811.03;4995168;28;20057;-62
2022/09/16 02:11:20;;;;;;;11.90;4.20;;;;;;;16.96;70.48;100813.50;4994098;28;20062;-65
2022/09/16 02:13:56;;;;;;;9.98;4.25;;;;;;;17.22;66.83;100813.84;4995461;28;20043;-63
2022/09/16 02:16:38;;;;;;;10.63;4.97;;;;;;;16.29;70.27;100825.34;4995487;28;20066;-63
2022/09/16 02:19:09;;;;;;;8.93;4.63;;;;;;;16.21;72.07;100820.72;4994929;28;20054;-63
2022/09/16 02:21:38;;;;;;;11.60;4.60;;;;;;;17.15;72.00;100805.31;4994863;28;20446;-63
2022/09/16 02:24:16;;;;;;;10.95;4.32;;;;;;;16.78;68.96;100809.38;4994285;28;20050;-63
2022/09/16 02:26:55;;;;;;;10.20;4.35;;;;;;;16.40;71.22;100814.56;4994444;28;20062;-63
2022/09/16 02:29:26;;;;;;;11.52;4.07;;;;;;;16.89;70.54;100816.88;4978821;28;20050;-63
2022/09/16 02:31:57;;;;;;;12.30;4.45;;;;;;;17.39;69.58;100807.97;4995895;28;20061;-63
2022/09/16 02:34:28;;;;;;;9.63;3.90;;;;;;;17.93;68.33;100797.06;4994611;28;20050;-63
2022/09/16 02:36:58;;;;;;;7.78;3.67;;;;;;;18.10;65.64;100793.09;4978326;28;20054;-63
2022/09/16 02:39:30;;;;;;;10.95;3.80;;;;;;;18.15;66.33;100785.25;4994818;28;20050;-63
2022/09/16 02:41:58;;;;;;;8.38;3.97;;;;;;;18.02;65.62;100796.88;4994577;28;20097;-63
2022/09/16 02:44:25;;;;;;;8.45;3.63;;;;;;;17.88;66.86;100791.75;4994623;28;20375;-64
2022/09/16 02:47:16;;;;;;;6.97;3.50;;;;;;;18.17;66.00;100788.47;4995157;28;20057;-64
2022/09/16 02:50:17;;;;;;;11.82;4.30;;;;;;;18.13;65.85;100790.41;4994724;28;20062;-63
2022/09/16 02:52:47;;;;;;;9.57;3.17;;;;;;;18.13;66.22;100787.59;4994625;28;20054;-63
2022/09/16 02:55:48;;;;;;;10.30;3.88;;;;;;;17.96;65.54;100782.38;4995268;28;20054;-63
2022/09/16 02:58:15;;;;;;;8.13;3.75;;;;;;;18.20;64.97;100793.31;4995576;28;20046;-64
2022/09/16 03:00:46;;;;;;;11.13;4.05;;;;;;;17.62;65.98;100786.72;4995602;28;20394;-64
2022/09/16 03:03:14;;;;;;;13.10;4.20;;;;;;;18.12;65.73;100791.53;4960734;28;20046;-65
2022/09/16 03:06:10;;;;;;;6.85;3.55;;;;;;;17.70;65.45;100784.91;4993648;28;20046;-63
2022/09/16 03:08:38;;;;;;;11.15;4.68;;;;;;;17.50;66.37;100781.25;4992653;28;20059;-63
2022/09/16 03:11:27;;;;;;;11.23;4.28;;;;;;;17.60;67.64;100782.69;4993580;28;20054;-64
2022/09/16 03:14:17;;;;;;;8.20;3.60;;;;;;;17.81;66.74;100781.25;4995557;28;20061;-63
2022/09/16 03:17:20;;;;;;;8.02;3.25;;;;;;;17.27;66.05;100777.41;4994859;28;20050;-63
2022/09/16 03:20:00;;;;;;;9.88;3.97;;;;;;;17.48;69.17;100780.78;4942814;28;20495;-64
2022/09/16 03:22:48;;;;;;;11.07;4.53;;;;;;;17.37;67.47;100781.63;4976941;28;20057;-62
2022/09/16 03:25:27;;;;;;;8.80;3.92;;;;;;;17.47;66.86;100781.94;4975725;28;20047;-63
2022/09/16 03:28:14;;;;;;;9.77;4.15;;;;;;;16.81;68.34;100780.84;4994484;28;20058;-64
2022/09/16 03:31:09;;;;;;;11.52;3.72;;;;;;;16.91;69.30;100779.56;4994723;28;20062;-63
2022/09/16 03:34:16;;;;;;;7.45;4.07;;;;;;;17.08;69.08;100771.72;4994153;28;20130;-64
2022/09/16 03:36:56;;;;;;;7.88;3.50;;;;;;;16.99;69.00;100776.63;4961251;28;20506;-63
2022/09/16 03:39:23;;;;;;;8.27;3.60;;;;;;;17.12;68.38;100775.38;4993437;28;20418;-63
2022/09/16 03:41:51;;;;;;;10.73;4.07;;;;;;;17.58;68.75;100776.66;4995554;28;20054;-64
2022/09/16 03:44:18;;;;;;;9.82;3.83;;;;;;;17.05;67.74;100780.75;4995466;28;20054;-64
2022/09/16 03:46:45;;;;;;;13.20;3.63;;;;;;;16.57;70.28;100797.63;4994910;28;20501;-64
2022/09/16 03:49:13;;;;;;;12.95;3.60;;;;;;;17.08;70.65;100791.19;5026196;28;20058;-64
2022/09/16 03:51:40;;;;;;;8.88;3.83;;;;;;;17.26;68.90;100791.69;4994755;28;20052;-65
2022/09/16 03:54:08;;;;;;;13.07;4.30;;;;;;;16.79;69.17;100795.13;4995734;28;20054;-64
2022/09/16 03:56:35;;;;;;;9.20;3.95;;;;;;;17.54;68.63;100800.84;4961487;28;20054;-65
2022/09/16 03:59:02;;;;;;;11.55;4.05;;;;;;;16.86;67.47;100803.69;4995189;28;20046;-64
2022/09/16 04:01:30;;;;;;;14.07;4.38;;;;;;;16.29;71.10;100802.28;4996464;28;20054;-64
2022/09/16 04:03:57;;;;;;;11.20;4.05;;;;;;;16.47;71.98;100803.69;4999077;28;20425;-65
2022/09/16 04:06:24;;;;;;;7.00;3.70;;;;;;;16.78;70.22;100807.44;4997819;28;20042;-64
2022/09/16 04:08:52;;;;;;;10.43;3.63;;;;;;;15.37;72.79;100807.53;4997705;28;20058;-64
2022/09/16 04:11:19;;;;;;;10.38;3.83;;;;;;;16.10;73.38;100816.78;4996409;28;20054;-65
2022/09/16 04:13:46;;;;;;;12.48;4.53;;;;;;;16.01;72.13;100815.25;4998753;28;20350;-64
2022/09/16 04:16:20;;;;;;;9.52;3.75;;;;;;;15.33;73.60;100809.34;5029602;28;20413;-63
2022/09/16 04:18:48;;;;;;;11.00;4.32;;;;;;;15.31;75.69;100813.63;4998479;28;20397;-64
2022/09/16 04:21:15;;;;;;;14.43;4.32;;;;;;;15.89;75.27;100820.81;4997837;28;20050;-64
2022/09/16 04:23:43;;;;;;;11.70;4.97;;;;;;;15.14;74.94;100825.72;4998675;28;20058;-63
2022/09/16 04:26:11;;;;;;;9.45;4.60;;;;;;;15.07;76.71;100819.91;4976105;28;20043;-64
2022/09/16 04:28:38;;;;;;;12.77;5.80;;;;;;;14.92;78.31;100826.09;4998943;28;20056;-63
2022/09/16 04:31:09;;;;;;;9.40;4.50;;;;;;;15.37;76.45;100826.13;4997501;28;20043;-63
2022/09/16 04:33:38;;;;;;;14.43;5.18;;;;;;;15.02;76.77;100822.91;4998369;28;20053;-63
2022/09/16 04:36:12;;;;;;;13.25;5.05;;;;;;;15.36;76.01;100824.53;4997468;28;20050;-64
2022/09/16 04:38:41;;;;;;;14.73;4.90;;;;;;;15.64;77.24;100826.34;5013863;28;20529;-64
2022/09/16 04:41:16;;;;;;;14.65;5.40;;;;;;;15.40;77.48;100829.06;4996293;28;20050;-64
2022/09/16 04:43:45;;;;;;;12.80;5.28;;;;;;;16.18;77.07;100826.94;5013990;28;20050;-63
2022/09/16 04:46:12;;;;;;;11.02;4.97;;;;;;;16.55;74.09;100813.84;4997905;28;20038;-65
2022/09/16 04:48:39;;;;;;;14.98;5.82;;;;;;;15.91;72.73;100824.06;4997888;28;20050;-64
2022/09/16 04:51:10;;;;;;;14.52;5.35;;;;;;;16.29;74.87;100830.06;4997481;28;20046;-64
2022/09/16 04:53:39;;;;;;;15.40;5.95;;;;;;;15.34;75.22;100822.06;4998459;28;20050;-64
2022/09/16 04:56:08;;;;;;;12.88;5.43;;;;;;;15.81;78.67;100825.34;4997754;28;20072;-64
2022/09/16 04:58:35;;;;;;;16.35;5.68;;;;;;;16.37;74.62;100810.47;5013092;28;20061;-64
2022/09/16 05:01:05;;;;;;;14.45;5.80;;;;;;;15.92;73.76;100815.38;4993652;28;20065;-64
2022/09/16 05:03:32;;;;;;;14.13;6.00;;;;;;;16.23;73.36;100821.16;4986208;28;20055;-64
2022/09/16 05:06:24;;;;;;;16.92;5.97;;;;;;;15.02;77.78;100817.34;4995866;28;20054;-66
2022/09/16 05:08:52;;;;;;;11.77;5.50;;;;;;;15.47;76.52;100825.72;4992994;28;20066;-64
2022/09/16 05:11:26;;;;;;;15.15;6.78;;;;;;;14.56;79.60;100832.25;4990969;28;20525;-65
2022/09/16 05:13:57;;;;;;;15.32;6.30;;;;;;;14.19;83.50;100835.84;4980091;28;20057;-64
2022/09/16 05:16:25;;;;;;;12.98;5.93;;;;;;;14.54;82.43;100822.63;4997166;28;20050;-64
2022/09/16 05:18:54;;;;;;;14.38;6.03;;;;;;;15.62;80.37;100819.53;4996177;28;20050;-66
2022/09/16 05:21:24;;;;;;;17.38;6.90;;;;;;;15.37;76.18;100818.63;4996966;28;20054;-64
2022/09/16 05:23:51;;;;;;;19.08;6.75;;;;;;;14.69;79.88;100827.59;4997181;28;20050;-65
2022/09/16 05:26:27;;;;;;;15.65;6.75;;;;;;;15.48;80.25;100817.03;4979994;28;20053;-64
2022/09/16 05:28:55;;;;;;;12.93;6.18;;;;;;;15.80;77.63;100823.69;4995909;28;20069;-64
2022/09/16 05:31:27;;;;;;;18.15;6.75;;;;;;;15.27;77.43;100827.38;5027611;28;20062;-64
2022/09/16 05:33:57;;;;;;;14.43;6.32;;;;;;;15.69;78.48;100828.88;4979829;28;20418;-64
2022/09/16 05:36:26;;;;;;;11.55;5.75;;;;;;;16.15;74.08;100829.63;4989914;28;20054;-64
2022/09/16 05:38:53;;;;;;;18.10;6.80;;;;;;;15.35;76.17;100834.00;4995454;28;20058;-65
2022/09/16 05:41:41;;;;;;;18.65;6.72;;;;;;;15.09;78.76;100837.03;4995925;28;20058;-65
2022/09/16 05:44:08;;;;;;;14.02;6.25;;;;;;;14.42;81.83;100839.19;4996563;28;20053;-63
2022/09/16 05:46:36;;;;;;;13.18;6.97;;;;;;;14.17;83.92;100840.13;4987200;28;20050;-64
2022/09/16 05:49:03;;;;;;;19.45;7.45;;;;;;;14.17;83.89;100845.66;5008643;28;20054;-64
2022/09/16 05:51:30;;;;;;;14.77;7.35;;;;;;;14.22;83.92;100845.47;5005330;28;20406;-64
2022/09/16 05:53:58;;;;;;;14.25;6.70;;;;;;;14.64;83.20;100847.97;5014617;28;20549;-65
2022/09/16 05:56:28;;;;;;;15.82;6.95;;;;;;;14.68;82.02;100842.56;4988819;28;20038;-65
2022/09/16 05:58:58;;;;;;;13.00;6.60;;;;;;;15.02;81.58;100836.75;4997186;28;20074;-64
2022/09/16 06:01:29;;;;;;;14.18;6.50;;;;;;;15.70;77.39;100844.41;4995186;28;20518;-64
2022/09/16 06:03:59;;;;;;;13.88;7.03;;;;;;;14.85;80.04;100853.56;4990747;28;20094;-63
2022/09/16 06:06:41;;;;;;;15.10;7.53;;;;;;;14.85;81.51;100853.56;5010244;28;20058;-64
2022/09/16 06:09:21;;;;;;;20.13;7.47;;;;;;;14.81;82.66;100851.78;4996528;28;20054;-64
2022/09/16 06:11:50;;;;;;;17.45;6.75;;;;;;;15.32;81.94;100852.16;4994705;28;20055;-65
2022/09/16 06:14:19;;;;;;;12.07;7.22;;;;;;;15.16;79.26;100864.22;4994899;28;20054;-64
2022/09/16 06:16:47;;;;;;;17.42;8.45;;;;;;;14.90;85.08;100861.66;4994968;28;20046;-65
2022/09/16 06:19:16;;;;;;;15.73;8.02;;;;;;;16.21;91.34;100856.03;4994087;28;20055;-64
2022/09/16 06:21:44;;;;;;;17.13;8.30;;;;;;;15.90;83.09;100853.00;4993371;28;20049;-65
2022/09/16 06:24:12;;;;;;;16.90;8.00;;;;;;;15.34;82.56;100866.47;4994096;28;20069;-65
2022/09/16 06:26:41;;;;;;;19.35;8.55;;;;;;;15.07;81.83;100875.38;4992993;28;20054;-65
2022/09/16 06:29:08;;;;;;;18.20;7.75;;;;;;;14.84;83.93;100862.19;4997698;28;20046;-63
2022/09/16 06:31:36;;;;;;;21.40;8.02;;;;;;;15.41;87.38;100864.00;4993978;28;20394;-64
2022/09/16 06:34:05;;;;;;;19.33;8.27;;;;;;;15.00;82.31;100864.03;4977441;28;20058;-64
2022/09/16 06:36:35;;;;;;;23.73;8.50;;;;;;;14.72;83.97;100864.91;4994876;28;20547;-65
2022/09/16 06:39:05;;;;;;;15.02;8.20;;;;;;;14.66;86.06;100861.53;5006469;28;20429;-71
2022/09/16 06:41:33;;;;;;;17.85;8.88;;;;;;;14.94;84.57;100859.81;4991628;28;20110;-64
2022/09/16 06:44:01;;;;;;;19.42;8.65;;;;;;;15.12;84.37;100861.31;4983424;28;20054;-65
2022/09/16 06:46:29;;;;;;;15.93;8.57;;;;;;;15.04;83.52;100858.63;5006663;28;20049;-65
2022/09/16 06:48:57;;;;;;;16.67;8.18;;;;;;;14.94;83.68;100864.59;5021615;28;20050;-62
2022/09/16 06:51:31;;;;;;;18.10;8.77;;;;;;;15.41;82.09;100865.97;4993892;28;20076;-65
2022/09/16 06:54:01;;;;;;;27.42;9.50;;;;;;;15.33;78.71;100867.66;4987847;28;20055;-64
2022/09/16 06:56:28;;;;;;;21.60;10.10;;;;;;;14.63;81.62;100876.06;4994528;28;20061;-64
2022/09/16 06:58:56;;;;;;;18.92;9.15;;;;;;;14.34;83.27;100876.91;4989723;28;20057;-66
2022/09/16 07:01:28;;;;;;;16.70;8.75;;;;;;;15.32;80.49;100874.34;4986992;28;20057;-65
2022/09/16 07:03:57;;;;;;;22.02;8.38;;;;;;;15.42;78.82;100879.50;4992061;28;20073;-64
2022/09/16 07:06:28;;;;;;;16.38;7.95;;;;;;;16.41;74.62;100882.88;4993298;28;20054;-65
2022/09/16 07:09:16;;;;;;;20.48;8.18;;;;;;;16.58;73.15;100877.91;4994174;28;20053;-66
2022/09/16 07:11:43;;;;;;;13.30;7.78;;;;;;;16.60;72.17;100886.72;4990797;28;20065;-65
2022/09/16 07:14:11;;;;;;;16.52;7.50;;;;;;;16.27;72.75;100891.56;4990616;28;20402;-64
2022/09/16 07:16:38;;;;;;;16.95;8.70;;;;;;;15.84;75.13;100890.47;4989763;28;20062;-66
2022/09/16 07:19:05;;;;;;;17.65;8.88;;;;;;;15.00;78.58;100897.31;4989429;28;20038;-65
2022/09/16 07:21:33;;;;;;;19.75;9.48;;;;;;;14.75;81.03;100905.84;4992734;28;20058;-65
2022/09/16 07:24:02;;;;;;;17.85;9.48;;;;;;;15.08;80.47;100904.75;4990270;28;20043;-65
2022/09/16 07:26:31;;;;;;;17.42;9.45;;;;;;;15.32;79.62;100909.63;4976046;28;20058;-64
2022/09/16 07:29:00;;;;;;;20.50;9.13;;;;;;;15.17;79.75;100908.28;4991963;28;20050;-64
2022/09/16 07:31:31;;;;;;;21.30;10.20;;;;;;;15.05;80.36;100913.75;4993643;28;20077;-63
2022/09/16 07:34:00;;;;;;;;;;;;;;;15.13;79.32;100912.84;4994468;28;20552;-63
2022/09/16 07:36:39;;;;;;;20.80;9.23;;;;;;;15.05;79.78;100916.53;4996974;28;19921;-63
2022/09/16 07:39:06;;;;;;;16.10;8.65;;;;;;;15.42;79.11;100906.44;4997542;28;20532;-64
2022/09/16 07:41:36;;;;;;;19.48;8.55;;;;;;;15.70;77.59;100907.47;4996750;28;20442;-63
2022/09/16 07:44:05;;;;;;;26.35;10.05;;;;;;;15.48;77.57;100911.44;4993653;28;20055;-63
2022/09/16 07:46:34;;;;;;;16.00;8.70;;;;;;;15.94;77.20;100913.06;4991656;28;20042;-65
2022/09/16 07:49:04;;;;;;;18.65;9.20;;;;;;;15.97;75.59;100906.03;4991544;28;20046;-64
2022/09/16 07:51:31;;;;;;;21.88;8.93;;;;;;;16.39;74.03;100915.78;4993979;28;20038;-63
2022/09/16 07:54:02;;;;;;;20.95;8.77;;;;;;;16.68;72.88;100921.16;4996755;28;20402;-64
2022/09/16 07:56:33;;;;;;;14.45;6.85;;;;;;;16.64;70.99;100920.22;4999605;28;20046;-64
2022/09/16 07:59:02;;;;;;;18.25;7.03;;;;;;;16.94;69.93;100921.56;4995680;28;20059;-63
2022/09/16 08:01:30;;;;;;;18.58;7.57;;;;;;;16.99;69.09;100924.09;4996965;28;20046;-64
2022/09/16 08:03:58;;;;;;;14.00;6.85;;;;;;;17.24;67.88;100924.84;4996857;28;20054;-64
2022/09/16 08:06:28;;;;;;;16.05;7.70;;;;;;;17.17;66.45;100931.03;4995182;28;20080;-63
2022/09/16 08:08:58;;;;;;;15.02;6.70;;;;;;;17.34;66.40;100927.97;4979652;28;20050;-65
2022/09/16 08:11:46;;;;;;;16.10;6.20;;;;;;;17.46;65.58;100929.88;4994047;28;20057;-65
2022/09/16 08:14:15;;;;;;;12.48;6.85;;;;;;;17.46;65.04;100921.53;4995129;28;20054;-65
2022/09/16 08:16:43;;;;;;;22.85;7.15;;;;;;;17.47;65.26;100921.19;5020684;28;20054;-66
2022/09/16 08:19:10;;;;;;;18.95;7.60;;;;;;;17.56;65.26;100933.00;4990930;28;20065;-64
2022/09/16 08:21:37;;;;;;;16.27;6.95;;;;;;;16.85;66.04;100940.38;4993716;28;20050;-65
2022/09/16 08:24:05;;;;;;;13.93;5.43;;;;;;;17.04;64.17;100929.44;4992058;28;20061;-63
2022/09/16 08:26:32;;;;;;;12.40;4.80;;;;;;;17.39;62.28;100932.44;4991596;28;20050;-65
2022/09/16 08:28:59;;;;;;;12.32;4.88;;;;;;;17.49;62.48;100935.56;4998704;28;20043;-64
2022/09/16 08:31:36;;;;;;;11.02;4.63;;;;;;;17.25;60.80;100932.03;5002129;28;20509;-65
2022/09/16 08:34:04;;;;;;;12.65;4.40;;;;;;;16.95;62.40;100941.84;4997014;28;20057;-65
2022/09/16 08:36:32;;;;;;;10.82;3.97;;;;;;;17.05;61.53;100942.16;4990108;28;20053;-65
2022/09/16 08:39:00;;;;;;;16.65;4.28;;;;;;;17.31;59.98;100939.78;4997485;28;20038;-65
2022/09/16 08:41:59;;;;;;;11.60;3.83;;;;;;;17.61;58.25;100949.44;4995782;28;20058;-65
2022/09/16 08:44:52;;;;;;;11.20;3.08;;;;;;;17.08;58.26;100955.41;4994510;28;20520;-65
2022/09/16 08:47:41;;;;;;;9.93;2.78;;;;;;;17.11;57.55;100957.47;5010897;28;20061;-65
2022/09/16 08:50:15;;;;;;;10.20;2.60;;;;;;;17.27;56.05;100963.13;4994100;28;20054;-66
2022/09/16 08:52:45;;;;;;;10.52;3.13;;;;;;;16.99;57.64;100965.03;4991413;28;20513;-65
2022/09/16 08:55:30;;;;;;;10.75;3.95;;;;;;;16.86;59.99;100962.28;4977507;28;20043;-65
2022/09/16 08:58:03;;;;;;;31.05;4.28;;;;;;;17.35;59.28;100959.38;4993575;28;20057;-64
2022/09/16 09:00:32;;;;;;;11.48;3.70;;;;;;;17.01;58.55;100966.31;4990500;28;20061;-65
2022/09/16 09:03:24;;;;;;;13.15;3.97;;;;;;;17.30;59.79;100960.44;4996165;28;20286;-64
2022/09/16 09:05:54;;;;;;;16.15;5.25;;;;;;;17.50;60.83;100964.25;4996338;28;20498;-62
2022/09/16 09:08:34;;;;;;;17.48;5.10;;;;;;;17.12;63.12;100967.44;4997198;28;20046;-64
2022/09/16 09:11:24;;;;;;;15.82;4.90;;;;;;;17.32;63.49;100969.25;4995427;28;20058;-63
2022/09/16 09:13:57;;;;;;;14.27;3.60;;;;;;;17.65;60.13;100967.09;5002517;28;20046;-64
2022/09/16 09:16:41;;;;;;;15.82;4.22;;;;;;;17.71;59.22;100968.44;4997448;28;20423;-64
2022/09/16 09:19:37;;;;;;;15.48;3.53;;;;;;;17.59;58.54;100971.28;4977293;28;20050;-63
2022/09/16 09:22:31;;;;;;;10.27;3.80;;;;;;;17.88;55.97;100976.50;4991038;28;20526;-64
2022/09/16 09:25:04;;;;;;;12.40;3.03;;;;;;;17.10;57.41;100989.28;4995463;28;20057;-64
2022/09/16 09:27:49;;;;;;;20.83;3.33;;;;;;;17.39;56.24;100979.78;4995051;28;20057;-64
2022/09/16 09:30:20;;;;;;;12.07;3.75;;;;;;;17.56;54.22;100980.34;4980126;28;20544;-65
2022/09/16 09:33:24;;;;;;;8.77;3.58;;;;;;;17.79;54.11;100986.19;4995593;28;20074;-64
2022/09/16 09:36:29;;;;;;;11.10;2.85;;;;;;;17.81;54.00;100983.84;5010268;28;20438;-63
2022/09/16 09:39:16;;;;;;;11.93;2.97;;;;;;;17.80;53.33;100985.81;5027721;28;20058;-66
2022/09/16 09:42:14;;;;;;;8.90;2.55;;;;;;;17.98;52.12;101001.06;4986165;28;20057;-65
2022/09/16 09:45:15;;;;;;;12.52;3.20;;;;;;;17.70;52.60;100996.66;4996184;28;20123;-65
2022/09/16 09:48:44;;;;;;;9.20;3.03;;;;;;;18.23;53.32;100996.16;4995079;28;20053;-66
2022/09/16 09:51:23;;;;;;;15.45;3.30;;;;;;;18.14;51.41;100994.69;4931157;29;20058;-64
2022/09/16 09:53:53;;;;;;;7.18;2.05;;;;;;;17.83;49.82;101001.84;4911361;29;20055;-64
2022/09/16 09:56:29;;;;;;;7.65;2.40;;;;;;;17.63;50.31;100999.22;4953754;28;20138;-64
2022/09/16 09:59:31;;;;;;;9.43;2.25;;;;;;;17.14;50.55;100997.72;4990854;28;20058;-64
2022/09/16 10:02:02;;;;;;;7.82;2.60;;;;;;;17.56;52.02;100994.28;4991715;28;20047;-64
2022/09/16 10:04:37;;;;;;;8.88;2.50;;;;;;;18.04;49.64;100993.25;4993107;28;20656;-64
2022/09/16 10:07:05;;;;;;;9.43;2.97;;;;;;;18.27;50.13;100993.47;4993670;28;20050;-65
2022/09/16 10:09:36;;;;;;;11.80;2.88;;;;;;;18.49;49.94;101001.25;4990098;28;20054;-64
2022/09/16 10:12:04;;;;;;;12.80;2.65;;;;;;;17.90;49.12;101004.00;5003586;28;20525;-64
2022/09/16 10:14:34;;;;;;;9.00;2.75;;;;;;;17.81;49.39;101009.75;4992082;28;20043;-63
2022/09/16 10:17:04;;;;;;;9.68;2.55;;;;;;;17.58;49.25;101002.28;4987265;28;20127;-64
2022/09/16 10:19:34;;;;;;;9.63;2.25;;;;;;;17.99;50.21;100994.31;4987962;28;20141;-64
2022/09/16 10:22:09;;;;;;;14.52;2.45;;;;;;;17.90;49.39;101004.00;4994823;28;20505;-64
2022/09/16 10:24:39;;;;;;;18.67;3.03;;;;;;;18.18;48.48;100995.63;4992468;28;20050;-67
2022/09/16 10:27:36;;;;;;;8.52;2.75;;;;;;;17.75;48.84;100997.22;4994962;28;20038;-65
2022/09/16 10:30:11;;;;;;;13.60;4.40;;;;;;;18.04;50.38;100989.66;4990670;28;20061;-64
2022/09/16 10:32:45;;;;;;;13.75;2.85;;;;;;;18.14;46.72;100994.69;4994453;28;20054;-64
2022/09/16 10:35:35;;;;;;;9.02;2.20;;;;;;;17.49;48.06;100993.25;4999909;28;20058;-63
2022/09/16 10:38:05;;;;;;;8.38;2.10;;;;;;;17.51;46.99;100997.31;4998773;28;20042;-63
2022/09/16 10:40:33;;;;;;;6.47;1.42;;;;;;;17.69;41.86;100989.47;4997455;28;20073;-63
2022/09/16 10:43:02;;;;;;;7.75;1.95;;;;;;;17.78;42.27;100987.34;4994854;28;20050;-64
2022/09/16 10:45:34;;;;;;;6.80;2.17;;;;;;;18.32;42.42;100990.41;4992204;28;20054;-63
2022/09/16 10:48:07;;;;;;;6.70;1.58;;;;;;;18.41;41.92;100991.88;4994240;28;20046;-64
2022/09/16 10:50:34;;;;;;;6.82;1.23;;;;;;;18.64;41.29;100997.63;4989688;28;20118;-63
2022/09/16 10:53:01;;;;;;;7.07;1.95;;;;;;;18.52;41.82;100990.19;4990580;28;20049;-65
2022/09/16 10:55:36;;;;;;;6.10;2.35;;;;;;;18.30;42.76;100989.97;4993597;28;20058;-64
2022/09/16 10:58:17;;;;;;;8.63;3.35;;;;;;;18.71;42.94;100995.03;4984432;28;20053;-62
2022/09/16 11:00:53;;;;;;;9.63;2.85;;;;;;;18.54;44.20;100992.59;4988331;28;20046;-64
2022/09/16 11:03:27;;;;;;;6.30;2.05;;;;;;;18.26;43.16;100991.84;4991160;28;20046;-65
2022/09/16 11:06:17;;;;;;;5.35;1.98;;;;;;;17.87;43.65;100999.13;4992382;28;20073;-64
2022/09/16 11:08:57;;;;;;;10.55;3.40;;;;;;;17.61;44.35;101002.38;4986334;28;20658;-63
2022/09/16 11:11:31;;;;;;;;;;;;;;;17.36;44.84;101003.59;4987997;28;20058;-62
2022/09/16 11:14:35;;;;;;;7.82;2.85;;;;;;;17.39;44.57;101004.84;4988533;28;19922;-64
2022/09/16 11:17:24;;;;;;;7.22;2.55;;;;;;;17.77;43.93;100994.06;4991741;28;20177;-63
2022/09/16 11:20:25;;;;;;;9.98;2.13;;;;;;;18.01;44.71;100996.75;5005668;28;20430;-63
2022/09/16 11:23:34;;;;;;;6.85;2.92;;;;;;;18.08;44.79;100999.72;4989594;28;20445;-64
2022/09/16 11:26:08;;;;;;;5.10;1.63;;;;;;;17.81;45.25;100990.25;4991859;28;20046;-63
2022/09/16 11:29:02;;;;;;;11.48;2.10;;;;;;;17.76;45.90;100981.31;4994782;28;20053;-62
2022/09/16 11:31:29;;;;;;;6.80;2.50;;;;;;;17.69;46.20;100987.50;4989029;28;20089;-62
2022/09/16 11:34:17;;;;;;;13.13;2.22;;;;;;;17.71;46.25;100989.94;4992891;28;20053;-62
2022/09/16 11:36:50;;;;;;;12.55;3.67;;;;;;;17.91;46.40;100989.72;4991415;28;20514;-63
2022/09/16 11:39:45;;;;;;;8.57;1.92;;;;;;;17.46;47.33;100999.50;4994863;28;20034;-62
2022/09/16 11:42:21;;;;;;;8.18;2.58;;;;;;;17.56;47.02;100997.06;4993864;28;20054;-63
2022/09/16 11:45:04;;;;;;;8.55;2.03;;;;;;;17.59;46.92;101001.13;5022370;28;20053;-61
2022/09/16 11:47:56;;;;;;;7.07;1.92;;;;;;;17.61;46.40;100999.59;4993750;28;20061;-61
2022/09/16 11:50:23;;;;;;;7.88;1.98;;;;;;;17.68;46.94;100998.97;4981240;28;20050;-62
2022/09/16 11:53:20;;;;;;;7.47;1.85;;;;;;;18.04;45.92;101000.81;4989052;28;20053;-63
2022/09/16 11:55:57;;;;;;;24.10;9.52;;;;;;;18.13;45.43;101004.25;4987254;28;20054;-64